KCGZ/CGZ METAR and TAF weather

Enter ICAO airport designator
Station Type Date Time Source
KCGZ METAR 2019/06/26 09:56 UTC NOAA

KCGZ 260956Z AUTO 06004KT 10SM CLR 21/M01 A2988 RMK AO2 SLP102 T02061006


Station Type Date Time Source
KCGZ Decoded METAR 2019/06/26 09:56 UTC NOAA

Casa Grande, Casa Grande Municipal Airport, AZ, United States (KCGZ) 32-57N 111-46W
Jun 26, 2019 - 05:56 AM EDT / 2019.06.26 0956 UTC
Wind: from the ENE (060 degrees) at 5 MPH (4 KT):0
Visibility: 10 mile(s):0
Sky conditions: clear
Temperature: 69.1 F (20.6 C)
Dew Point: 30.9 F (-0.6 C)
Relative Humidity: 24%
Pressure (altimeter): 29.88 in. Hg (1011 hPa)
ob: KCGZ 260956Z AUTO 06004KT 10SM CLR 21/M01 A2988 RMK AO2 SLP102 T02061006
cycle: 10

Station Type Date Time Source
KCGZ TAF UTC NOAA

Error!

Example: see airport list